Huvudsida
METAR-TAF:

METAR-TAF

Flygplatser :

Belgrad-Nikola Teslas flygplats

Belgrad, Serbien

latitud: 44-49N, longitud: 020-17E, höjd: 96 m

Aktuellt väderrapport

Denna rapport gjordes för 23 minuter sedan, klockan 12:30 UTC
Vind 1 kt varierande vindriktning
Temperatur 27°C
Fuktighet 32%
Tryck 1019 hPa
Sikt 10 km eller mer
Inga moln under 1 500 m eller inga cumulonimbus

METAR: LYBE 251230Z VRB01KT CAVOK 27/09 Q1019 NOSIG

Tid: 14:53 (12:53 UTC)

Väderprognos

Denna rapport gjordes för 1 timme och 53 minuter sedan, klockan 11:00 UTC
Prognos gäller från 25 kl. 12 UTC till 26 kl. 12 UTC
Vind 9 kt från sydost
Sikt 10 km eller mer
Inga moln under 1 500 m eller inga cumulonimbus

TAF: LYBE 251100Z 2512/2612 14009KT CAVOK TX27/2513Z TN14/2604Z

Aktuella väderrapporter och prognoser från 4000 flygplatser (METAR- och TAF-rapporter).

De tillgängliga stationerna syns som gula och röda prickar på kartan.

För musen över prickarna för att se namnen på stationerna.

Klicka sedan för att få väderrapporter och prognoser.

För att ändra kartan: Klicka på de gröna knapparna med ett svart kors på för att zooma in; den gröna knappen med ett streck på för att zooma ut; eller på de gröna pilarna för angränsande kartor.


METAR-TAF: